sensor_id;sensor_type;location;lat;lon;timestamp;temperature;humidity
69901;DHT22;57183;50.930;5.406;2022-12-29T00:02:14;11.40;99.90
69901;DHT22;57183;50.930;5.406;2022-12-29T00:04:39;11.40;99.90
69901;DHT22;57183;50.930;5.406;2022-12-29T00:07:06;11.40;99.90
69901;DHT22;57183;50.930;5.406;2022-12-29T00:09:32;11.40;99.90
69901;DHT22;57183;50.930;5.406;2022-12-29T00:11:58;11.40;99.90
69901;DHT22;57183;50.930;5.406;2022-12-29T00:14:24;11.40;99.90
69901;DHT22;57183;50.930;5.406;2022-12-29T00:17:08;11.40;99.90
69901;DHT22;57183;50.930;5.406;2022-12-29T00:19:34;11.40;99.90
69901;DHT22;57183;50.930;5.406;2022-12-29T00:22:19;11.50;99.90
69901;DHT22;57183;50.930;5.406;2022-12-29T00:25:05;11.50;99.90
69901;DHT22;57183;50.930;5.406;2022-12-29T00:27:49;11.60;99.90
69901;DHT22;57183;50.930;5.406;2022-12-29T00:30:33;11.60;99.90
69901;DHT22;57183;50.930;5.406;2022-12-29T00:33:21;11.80;99.90
69901;DHT22;57183;50.930;5.406;2022-12-29T00:38:51;11.90;99.90
69901;DHT22;57183;50.930;5.406;2022-12-29T00:41:37;11.90;99.90
69901;DHT22;57183;50.930;5.406;2022-12-29T00:44:21;11.90;99.90
69901;DHT22;57183;50.930;5.406;2022-12-29T00:46:47;12.00;99.90
69901;DHT22;57183;50.930;5.406;2022-12-29T00:49:13;12.00;99.90
69901;DHT22;57183;50.930;5.406;2022-12-29T00:52:09;12.00;99.90
69901;DHT22;57183;50.930;5.406;2022-12-29T00:54:37;12.00;99.90
69901;DHT22;57183;50.930;5.406;2022-12-29T00:57:05;12.10;99.90
69901;DHT22;57183;50.930;5.406;2022-12-29T00:59:31;12.00;99.90
69901;DHT22;57183;50.930;5.406;2022-12-29T01:01:58;11.90;99.90
69901;DHT22;57183;50.930;5.406;2022-12-29T01:04:25;11.90;99.90
69901;DHT22;57183;50.930;5.406;2022-12-29T01:06:51;11.90;99.90
69901;DHT22;57183;50.930;5.406;2022-12-29T01:09:17;11.90;99.90
69901;DHT22;57183;50.930;5.406;2022-12-29T01:12:06;12.00;99.90
69901;DHT22;57183;50.930;5.406;2022-12-29T01:14:32;11.90;99.90
69901;DHT22;57183;50.930;5.406;2022-12-29T01:16:58;11.90;99.90
69901;DHT22;57183;50.930;5.406;2022-12-29T01:19:24;12.00;99.90
69901;DHT22;57183;50.930;5.406;2022-12-29T01:21:50;11.90;99.90
69901;DHT22;57183;50.930;5.406;2022-12-29T01:24:17;12.00;99.90
69901;DHT22;57183;50.930;5.406;2022-12-29T01:26:43;12.00;99.90
69901;DHT22;57183;50.930;5.406;2022-12-29T01:29:09;12.00;99.90
69901;DHT22;57183;50.930;5.406;2022-12-29T01:31:36;12.00;99.90
69901;DHT22;57183;50.930;5.406;2022-12-29T01:34:02;12.00;99.90
69901;DHT22;57183;50.930;5.406;2022-12-29T01:36:28;12.00;99.90
69901;DHT22;57183;50.930;5.406;2022-12-29T01:38:55;12.00;99.90
69901;DHT22;57183;50.930;5.406;2022-12-29T01:41:22;12.00;99.90
69901;DHT22;57183;50.930;5.406;2022-12-29T01:46:16;12.10;99.90
69901;DHT22;57183;50.930;5.406;2022-12-29T01:48:46;12.10;99.90
69901;DHT22;57183;50.930;5.406;2022-12-29T01:51:12;12.10;99.90
69901;DHT22;57183;50.930;5.406;2022-12-29T01:53:38;12.20;99.90
69901;DHT22;57183;50.930;5.406;2022-12-29T01:56:07;12.10;99.90
69901;DHT22;57183;50.930;5.406;2022-12-29T01:58:39;12.20;99.90
69901;DHT22;57183;50.930;5.406;2022-12-29T02:01:05;12.20;99.90
69901;DHT22;57183;50.930;5.406;2022-12-29T02:03:31;12.10;99.90
69901;DHT22;57183;50.930;5.406;2022-12-29T02:06:02;12.00;99.90
69901;DHT22;57183;50.930;5.406;2022-12-29T02:08:31;11.90;99.90
69901;DHT22;57183;50.930;5.406;2022-12-29T02:10:59;11.80;99.90
69901;DHT22;57183;50.930;5.406;2022-12-29T02:13:27;11.70;99.90
69901;DHT22;57183;50.930;5.406;2022-12-29T02:21:40;11.60;99.90
69901;DHT22;57183;50.930;5.406;2022-12-29T02:40:24;11.80;99.90
69901;DHT22;57183;50.930;5.406;2022-12-29T02:43:07;11.90;99.90
69901;DHT22;57183;50.930;5.406;2022-12-29T02:48:31;11.90;99.90
69901;DHT22;57183;50.930;5.406;2022-12-29T02:51:08;12.00;99.90
69901;DHT22;57183;50.930;5.406;2022-12-29T02:53:36;12.00;99.90
69901;DHT22;57183;50.930;5.406;2022-12-29T02:56:21;12.00;99.90
69901;DHT22;57183;50.930;5.406;2022-12-29T02:58:47;12.00;99.90
69901;DHT22;57183;50.930;5.406;2022-12-29T03:11:19;12.00;99.90
69901;DHT22;57183;50.930;5.406;2022-12-29T03:14:17;12.10;99.90
69901;DHT22;57183;50.930;5.406;2022-12-29T03:17:13;12.10;99.90
69901;DHT22;57183;50.930;5.406;2022-12-29T03:19:46;12.00;99.90
69901;DHT22;57183;50.930;5.406;2022-12-29T03:22:20;11.80;99.90
69901;DHT22;57183;50.930;5.406;2022-12-29T03:25:24;11.70;99.90
69901;DHT22;57183;50.930;5.406;2022-12-29T03:28:01;11.70;99.90
69901;DHT22;57183;50.930;5.406;2022-12-29T03:30:29;11.70;99.90
69901;DHT22;57183;50.930;5.406;2022-12-29T03:32:59;11.70;99.90
69901;DHT22;57183;50.930;5.406;2022-12-29T03:35:29;11.70;99.90
69901;DHT22;57183;50.930;5.406;2022-12-29T03:38:11;11.80;99.90
69901;DHT22;57183;50.930;5.406;2022-12-29T03:40:42;11.90;99.90
69901;DHT22;57183;50.930;5.406;2022-12-29T03:43:10;11.90;99.90
69901;DHT22;57183;50.930;5.406;2022-12-29T03:45:36;11.90;99.90
69901;DHT22;57183;50.930;5.406;2022-12-29T03:48:02;12.00;99.90
69901;DHT22;57183;50.930;5.406;2022-12-29T03:50:28;12.00;99.90
69901;DHT22;57183;50.930;5.406;2022-12-29T03:52:53;12.00;99.90
69901;DHT22;57183;50.930;5.406;2022-12-29T03:55:19;11.90;99.90
69901;DHT22;57183;50.930;5.406;2022-12-29T03:57:45;12.00;99.90
69901;DHT22;57183;50.930;5.406;2022-12-29T04:00:11;11.80;99.90
69901;DHT22;57183;50.930;5.406;2022-12-29T04:02:37;11.80;99.90
69901;DHT22;57183;50.930;5.406;2022-12-29T04:05:02;11.70;99.90
69901;DHT22;57183;50.930;5.406;2022-12-29T04:07:28;11.70;99.90
69901;DHT22;57183;50.930;5.406;2022-12-29T04:09:54;11.70;99.90
69901;DHT22;57183;50.930;5.406;2022-12-29T04:12:19;11.80;99.90
69901;DHT22;57183;50.930;5.406;2022-12-29T04:14:45;11.80;99.90
69901;DHT22;57183;50.930;5.406;2022-12-29T04:17:11;11.70;99.90
69901;DHT22;57183;50.930;5.406;2022-12-29T04:19:36;11.50;99.90
69901;DHT22;57183;50.930;5.406;2022-12-29T04:22:02;11.30;99.90
69901;DHT22;57183;50.930;5.406;2022-12-29T04:24:28;11.10;99.90
69901;DHT22;57183;50.930;5.406;2022-12-29T04:26:53;11.10;99.90
69901;DHT22;57183;50.930;5.406;2022-12-29T04:29:19;11.00;99.90
69901;DHT22;57183;50.930;5.406;2022-12-29T04:31:45;10.90;99.90
69901;DHT22;57183;50.930;5.406;2022-12-29T04:34:10;10.70;99.90
69901;DHT22;57183;50.930;5.406;2022-12-29T04:36:36;10.70;99.90
69901;DHT22;57183;50.930;5.406;2022-12-29T04:39:02;10.60;99.90
69901;DHT22;57183;50.930;5.406;2022-12-29T04:41:30;10.50;99.90
69901;DHT22;57183;50.930;5.406;2022-12-29T04:43:56;10.60;99.90
69901;DHT22;57183;50.930;5.406;2022-12-29T04:46:21;10.50;99.90
69901;DHT22;57183;50.930;5.406;2022-12-29T04:48:47;10.40;99.90
69901;DHT22;57183;50.930;5.406;2022-12-29T04:51:13;10.50;99.90
69901;DHT22;57183;50.930;5.406;2022-12-29T04:53:38;10.50;99.90
69901;DHT22;57183;50.930;5.406;2022-12-29T04:56:04;10.60;99.90
69901;DHT22;57183;50.930;5.406;2022-12-29T04:58:30;10.60;99.90
69901;DHT22;57183;50.930;5.406;2022-12-29T05:00:56;10.70;99.90
69901;DHT22;57183;50.930;5.406;2022-12-29T05:03:21;10.70;99.90
69901;DHT22;57183;50.930;5.406;2022-12-29T05:05:47;10.70;99.90
69901;DHT22;57183;50.930;5.406;2022-12-29T05:08:13;10.70;99.90
69901;DHT22;57183;50.930;5.406;2022-12-29T05:10:38;10.70;99.90
69901;DHT22;57183;50.930;5.406;2022-12-29T05:13:04;10.80;99.90
69901;DHT22;57183;50.930;5.406;2022-12-29T05:15:30;10.80;99.90
69901;DHT22;57183;50.930;5.406;2022-12-29T05:17:56;10.90;99.90
69901;DHT22;57183;50.930;5.406;2022-12-29T05:20:21;11.00;99.90
69901;DHT22;57183;50.930;5.406;2022-12-29T05:22:47;11.00;99.90
69901;DHT22;57183;50.930;5.406;2022-12-29T05:25:13;11.00;99.90
69901;DHT22;57183;50.930;5.406;2022-12-29T05:27:38;11.10;99.90
69901;DHT22;57183;50.930;5.406;2022-12-29T05:30:04;11.20;99.90
69901;DHT22;57183;50.930;5.406;2022-12-29T05:32:30;11.10;99.90
69901;DHT22;57183;50.930;5.406;2022-12-29T05:34:56;11.20;99.90
69901;DHT22;57183;50.930;5.406;2022-12-29T05:37:21;11.30;99.90
69901;DHT22;57183;50.930;5.406;2022-12-29T05:39:47;11.30;99.90
69901;DHT22;57183;50.930;5.406;2022-12-29T05:42:13;11.30;99.90
69901;DHT22;57183;50.930;5.406;2022-12-29T05:44:38;11.30;99.90
69901;DHT22;57183;50.930;5.406;2022-12-29T05:47:04;11.30;99.90
69901;DHT22;57183;50.930;5.406;2022-12-29T05:49:30;11.30;99.90
69901;DHT22;57183;50.930;5.406;2022-12-29T05:51:55;11.40;99.90
69901;DHT22;57183;50.930;5.406;2022-12-29T05:54:21;11.40;99.90
69901;DHT22;57183;50.930;5.406;2022-12-29T05:56:47;11.40;99.90
69901;DHT22;57183;50.930;5.406;2022-12-29T05:59:12;11.40;99.90
69901;DHT22;57183;50.930;5.406;2022-12-29T06:01:38;11.40;99.90
69901;DHT22;57183;50.930;5.406;2022-12-29T06:04:04;11.40;99.90
69901;DHT22;57183;50.930;5.406;2022-12-29T06:06:29;11.40;99.90
69901;DHT22;57183;50.930;5.406;2022-12-29T06:08:55;11.40;99.90
69901;DHT22;57183;50.930;5.406;2022-12-29T06:11:21;11.30;99.90
69901;DHT22;57183;50.930;5.406;2022-12-29T06:13:46;11.30;99.90
69901;DHT22;57183;50.930;5.406;2022-12-29T06:16:12;11.30;99.90
69901;DHT22;57183;50.930;5.406;2022-12-29T06:18:38;11.30;99.90
69901;DHT22;57183;50.930;5.406;2022-12-29T06:21:04;11.30;99.90
69901;DHT22;57183;50.930;5.406;2022-12-29T06:23:30;11.20;99.90
69901;DHT22;57183;50.930;5.406;2022-12-29T06:25:56;11.20;99.90
69901;DHT22;57183;50.930;5.406;2022-12-29T06:28:22;11.30;99.90
69901;DHT22;57183;50.930;5.406;2022-12-29T06:30:48;11.30;99.90
69901;DHT22;57183;50.930;5.406;2022-12-29T06:33:15;11.20;99.90
69901;DHT22;57183;50.930;5.406;2022-12-29T06:35:42;11.20;99.90
69901;DHT22;57183;50.930;5.406;2022-12-29T06:38:08;11.20;99.90
69901;DHT22;57183;50.930;5.406;2022-12-29T06:40:33;11.10;99.90
69901;DHT22;57183;50.930;5.406;2022-12-29T06:42:59;11.10;99.90
69901;DHT22;57183;50.930;5.406;2022-12-29T06:45:25;11.10;99.90
69901;DHT22;57183;50.930;5.406;2022-12-29T06:47:50;11.00;99.90
69901;DHT22;57183;50.930;5.406;2022-12-29T06:50:16;11.00;99.90
69901;DHT22;57183;50.930;5.406;2022-12-29T06:52:42;11.00;99.90
69901;DHT22;57183;50.930;5.406;2022-12-29T06:55:08;11.00;99.90
69901;DHT22;57183;50.930;5.406;2022-12-29T06:57:34;11.10;99.90
69901;DHT22;57183;50.930;5.406;2022-12-29T06:59:59;11.00;99.90
69901;DHT22;57183;50.930;5.406;2022-12-29T07:02:25;11.00;99.90
69901;DHT22;57183;50.930;5.406;2022-12-29T07:04:51;11.10;99.90
69901;DHT22;57183;50.930;5.406;2022-12-29T07:07:21;11.10;99.90
69901;DHT22;57183;50.930;5.406;2022-12-29T07:09:47;11.10;99.90
69901;DHT22;57183;50.930;5.406;2022-12-29T07:12:12;11.20;99.90
69901;DHT22;57183;50.930;5.406;2022-12-29T07:14:38;11.20;99.90
69901;DHT22;57183;50.930;5.406;2022-12-29T07:17:04;11.20;99.90
69901;DHT22;57183;50.930;5.406;2022-12-29T07:19:32;11.20;99.90
69901;DHT22;57183;50.930;5.406;2022-12-29T07:21:58;11.10;99.90
69901;DHT22;57183;50.930;5.406;2022-12-29T07:24:23;11.10;99.90
69901;DHT22;57183;50.930;5.406;2022-12-29T07:26:51;11.10;99.90
69901;DHT22;57183;50.930;5.406;2022-12-29T07:29:17;11.10;99.90
69901;DHT22;57183;50.930;5.406;2022-12-29T07:31:43;11.10;99.90
69901;DHT22;57183;50.930;5.406;2022-12-29T07:34:09;11.00;99.90
69901;DHT22;57183;50.930;5.406;2022-12-29T07:36:34;10.80;99.90
69901;DHT22;57183;50.930;5.406;2022-12-29T07:39:01;10.70;99.90
69901;DHT22;57183;50.930;5.406;2022-12-29T07:41:27;10.60;99.90
69901;DHT22;57183;50.930;5.406;2022-12-29T07:43:52;10.50;99.90
69901;DHT22;57183;50.930;5.406;2022-12-29T07:46:18;10.40;99.90
69901;DHT22;57183;50.930;5.406;2022-12-29T07:48:44;10.40;99.90
69901;DHT22;57183;50.930;5.406;2022-12-29T07:51:09;10.40;99.90
69901;DHT22;57183;50.930;5.406;2022-12-29T07:53:35;10.50;99.90
69901;DHT22;57183;50.930;5.406;2022-12-29T07:56:01;10.60;99.90
69901;DHT22;57183;50.930;5.406;2022-12-29T07:58:26;10.70;99.90
69901;DHT22;57183;50.930;5.406;2022-12-29T08:00:56;10.80;99.90
69901;DHT22;57183;50.930;5.406;2022-12-29T08:03:22;10.80;99.90
69901;DHT22;57183;50.930;5.406;2022-12-29T08:05:49;10.70;99.90
69901;DHT22;57183;50.930;5.406;2022-12-29T08:08:14;10.70;99.90
69901;DHT22;57183;50.930;5.406;2022-12-29T08:10:40;10.70;99.90
69901;DHT22;57183;50.930;5.406;2022-12-29T08:13:06;10.60;99.90
69901;DHT22;57183;50.930;5.406;2022-12-29T08:15:32;10.70;99.90
69901;DHT22;57183;50.930;5.406;2022-12-29T08:17:58;10.70;99.90
69901;DHT22;57183;50.930;5.406;2022-12-29T08:20:23;10.70;99.90
69901;DHT22;57183;50.930;5.406;2022-12-29T08:22:50;10.80;99.90
69901;DHT22;57183;50.930;5.406;2022-12-29T08:25:16;10.90;99.90
69901;DHT22;57183;50.930;5.406;2022-12-29T08:27:41;10.90;99.90
69901;DHT22;57183;50.930;5.406;2022-12-29T08:30:08;10.90;99.90
69901;DHT22;57183;50.930;5.406;2022-12-29T08:32:34;10.90;99.90
69901;DHT22;57183;50.930;5.406;2022-12-29T08:34:59;11.00;99.90
69901;DHT22;57183;50.930;5.406;2022-12-29T08:37:25;11.10;99.90
69901;DHT22;57183;50.930;5.406;2022-12-29T08:39:51;11.10;99.90
69901;DHT22;57183;50.930;5.406;2022-12-29T08:42:17;11.10;99.90
69901;DHT22;57183;50.930;5.406;2022-12-29T08:44:43;11.10;99.90
69901;DHT22;57183;50.930;5.406;2022-12-29T08:47:10;11.10;99.90
69901;DHT22;57183;50.930;5.406;2022-12-29T08:49:36;11.10;99.90
69901;DHT22;57183;50.930;5.406;2022-12-29T08:52:01;11.20;99.90
69901;DHT22;57183;50.930;5.406;2022-12-29T08:54:28;11.20;99.90
69901;DHT22;57183;50.930;5.406;2022-12-29T08:56:53;11.20;99.90
69901;DHT22;57183;50.930;5.406;2022-12-29T08:59:19;11.20;99.90
69901;DHT22;57183;50.930;5.406;2022-12-29T09:01:45;11.10;99.90
69901;DHT22;57183;50.930;5.406;2022-12-29T09:04:10;11.00;99.90
69901;DHT22;57183;50.930;5.406;2022-12-29T09:06:36;10.90;99.90
69901;DHT22;57183;50.930;5.406;2022-12-29T09:09:02;10.90;99.90
69901;DHT22;57183;50.930;5.406;2022-12-29T09:11:28;10.90;99.90
69901;DHT22;57183;50.930;5.406;2022-12-29T09:13:54;10.90;99.90
69901;DHT22;57183;50.930;5.406;2022-12-29T09:16:22;10.90;99.90
69901;DHT22;57183;50.930;5.406;2022-12-29T09:18:49;10.90;99.90
69901;DHT22;57183;50.930;5.406;2022-12-29T09:21:16;11.00;99.90
69901;DHT22;57183;50.930;5.406;2022-12-29T09:23:42;10.90;99.90
69901;DHT22;57183;50.930;5.406;2022-12-29T09:26:08;10.90;99.90
69901;DHT22;57183;50.930;5.406;2022-12-29T09:28:34;10.90;99.90
69901;DHT22;57183;50.930;5.406;2022-12-29T09:31:01;10.80;99.90
69901;DHT22;57183;50.930;5.406;2022-12-29T09:33:27;10.90;99.90
69901;DHT22;57183;50.930;5.406;2022-12-29T09:35:55;10.90;99.90
69901;DHT22;57183;50.930;5.406;2022-12-29T09:38:22;11.00;99.90
69901;DHT22;57183;50.930;5.406;2022-12-29T09:40:53;11.00;99.90
69901;DHT22;57183;50.930;5.406;2022-12-29T09:48:51;11.10;99.90
69901;DHT22;57183;50.930;5.406;2022-12-29T09:51:22;11.10;99.90
69901;DHT22;57183;50.930;5.406;2022-12-29T09:54:12;11.10;99.90
69901;DHT22;57183;50.930;5.406;2022-12-29T09:56:45;11.10;99.90
69901;DHT22;57183;50.930;5.406;2022-12-29T09:59:17;11.00;99.90
69901;DHT22;57183;50.930;5.406;2022-12-29T10:01:58;10.90;99.90
69901;DHT22;57183;50.930;5.406;2022-12-29T10:04:29;10.90;99.90
69901;DHT22;57183;50.930;5.406;2022-12-29T10:07:01;10.90;99.90
69901;DHT22;57183;50.930;5.406;2022-12-29T10:12:31;10.90;99.90
69901;DHT22;57183;50.930;5.406;2022-12-29T10:23:26;11.00;99.90
69901;DHT22;57183;50.930;5.406;2022-12-29T10:25:58;11.00;99.90
69901;DHT22;57183;50.930;5.406;2022-12-29T10:31:00;11.00;99.90
69901;DHT22;57183;50.930;5.406;2022-12-29T10:33:34;11.00;99.90
69901;DHT22;57183;50.930;5.406;2022-12-29T10:36:04;11.00;99.90
69901;DHT22;57183;50.930;5.406;2022-12-29T10:38:40;11.00;99.90
69901;DHT22;57183;50.930;5.406;2022-12-29T10:46:17;11.30;99.90
69901;DHT22;57183;50.930;5.406;2022-12-29T10:48:44;11.30;99.90
69901;DHT22;57183;50.930;5.406;2022-12-29T10:51:25;11.30;99.90
69901;DHT22;57183;50.930;5.406;2022-12-29T10:53:51;11.20;99.90
69901;DHT22;57183;50.930;5.406;2022-12-29T10:59:05;11.40;99.90
69901;DHT22;57183;50.930;5.406;2022-12-29T11:01:37;11.40;99.90
69901;DHT22;57183;50.930;5.406;2022-12-29T11:07:06;11.60;99.90
69901;DHT22;57183;50.930;5.406;2022-12-29T11:09:35;11.60;99.90
69901;DHT22;57183;50.930;5.406;2022-12-29T11:12:28;11.60;99.90
69901;DHT22;57183;50.930;5.406;2022-12-29T11:17:56;11.80;99.90
69901;DHT22;57183;50.930;5.406;2022-12-29T11:20:34;11.70;99.90
69901;DHT22;57183;50.930;5.406;2022-12-29T11:23:02;11.70;99.90
69901;DHT22;57183;50.930;5.406;2022-12-29T11:25:29;11.70;99.90
69901;DHT22;57183;50.930;5.406;2022-12-29T11:30:28;11.80;99.90
69901;DHT22;57183;50.930;5.406;2022-12-29T11:32:55;11.70;99.90
69901;DHT22;57183;50.930;5.406;2022-12-29T11:35:38;11.70;99.90
69901;DHT22;57183;50.930;5.406;2022-12-29T11:38:05;11.60;99.90
69901;DHT22;57183;50.930;5.406;2022-12-29T11:40:31;11.60;99.90
69901;DHT22;57183;50.930;5.406;2022-12-29T11:43:03;11.60;99.90
69901;DHT22;57183;50.930;5.406;2022-12-29T11:45:34;11.60;99.90
69901;DHT22;57183;50.930;5.406;2022-12-29T11:48:12;11.60;99.90
69901;DHT22;57183;50.930;5.406;2022-12-29T11:50:41;11.50;99.90
69901;DHT22;57183;50.930;5.406;2022-12-29T11:55:40;11.60;99.90
69901;DHT22;57183;50.930;5.406;2022-12-29T11:58:15;11.50;99.90
69901;DHT22;57183;50.930;5.406;2022-12-29T12:00:41;11.50;99.90
69901;DHT22;57183;50.930;5.406;2022-12-29T12:03:17;11.50;99.90
69901;DHT22;57183;50.930;5.406;2022-12-29T12:06:00;11.50;99.90
69901;DHT22;57183;50.930;5.406;2022-12-29T12:08:39;11.50;99.90
69901;DHT22;57183;50.930;5.406;2022-12-29T12:11:30;11.50;99.90
69901;DHT22;57183;50.930;5.406;2022-12-29T12:14:27;11.40;99.90
69901;DHT22;57183;50.930;5.406;2022-12-29T12:17:02;11.60;99.90
69901;DHT22;57183;50.930;5.406;2022-12-29T12:27:33;11.60;99.90
69901;DHT22;57183;50.930;5.406;2022-12-29T12:30:35;11.60;99.90
69901;DHT22;57183;50.930;5.406;2022-12-29T12:35:43;11.60;99.90
69901;DHT22;57183;50.930;5.406;2022-12-29T12:41:20;11.60;99.90
69901;DHT22;57183;50.930;5.406;2022-12-29T12:44:24;11.70;99.90
69901;DHT22;57183;50.930;5.406;2022-12-29T12:49:33;11.60;99.90
69901;DHT22;57183;50.930;5.406;2022-12-29T13:00:28;11.60;99.90
69901;DHT22;57183;50.930;5.406;2022-12-29T13:03:10;11.60;99.90
69901;DHT22;57183;50.930;5.406;2022-12-29T13:06:05;11.60;99.90
69901;DHT22;57183;50.930;5.406;2022-12-29T13:11:46;11.50;99.90
69901;DHT22;57183;50.930;5.406;2022-12-29T13:14:40;11.50;99.90
69901;DHT22;57183;50.930;5.406;2022-12-29T13:17:17;11.50;99.90
69901;DHT22;57183;50.930;5.406;2022-12-29T13:25:54;11.40;99.90
69901;DHT22;57183;50.930;5.406;2022-12-29T13:31:16;11.50;99.90
69901;DHT22;57183;50.930;5.406;2022-12-29T13:33:55;11.40;99.90
69901;DHT22;57183;50.930;5.406;2022-12-29T13:36:43;11.40;99.90
69901;DHT22;57183;50.930;5.406;2022-12-29T13:41:56;11.40;99.90
69901;DHT22;57183;50.930;5.406;2022-12-29T13:44:27;11.50;99.90
69901;DHT22;57183;50.930;5.406;2022-12-29T13:46:54;11.30;99.90
69901;DHT22;57183;50.930;5.406;2022-12-29T13:49:23;11.30;99.90
69901;DHT22;57183;50.930;5.406;2022-12-29T13:52:04;11.30;99.90
69901;DHT22;57183;50.930;5.406;2022-12-29T13:54:55;11.30;99.90
69901;DHT22;57183;50.930;5.406;2022-12-29T13:57:39;11.30;99.90
69901;DHT22;57183;50.930;5.406;2022-12-29T14:00:16;11.30;99.90
69901;DHT22;57183;50.930;5.406;2022-12-29T14:07:46;11.30;99.90
69901;DHT22;57183;50.930;5.406;2022-12-29T14:10:35;11.30;99.90
69901;DHT22;57183;50.930;5.406;2022-12-29T14:13:05;11.20;99.90
69901;DHT22;57183;50.930;5.406;2022-12-29T14:15:32;11.20;99.90
69901;DHT22;57183;50.930;5.406;2022-12-29T14:18:17;11.10;99.90
69901;DHT22;57183;50.930;5.406;2022-12-29T14:21:03;10.70;99.90
69901;DHT22;57183;50.930;5.406;2022-12-29T14:23:45;10.50;99.90
69901;DHT22;57183;50.930;5.406;2022-12-29T14:26:14;10.30;99.90
69901;DHT22;57183;50.930;5.406;2022-12-29T14:28:45;10.20;99.90
69901;DHT22;57183;50.930;5.406;2022-12-29T14:33:41;10.00;99.90
69901;DHT22;57183;50.930;5.406;2022-12-29T14:39:37;9.50;99.90
69901;DHT22;57183;50.930;5.406;2022-12-29T14:42:13;9.50;99.90
69901;DHT22;57183;50.930;5.406;2022-12-29T14:45:08;9.40;99.90
69901;DHT22;57183;50.930;5.406;2022-12-29T14:47:51;9.40;99.90
69901;DHT22;57183;50.930;5.406;2022-12-29T14:52:57;9.40;99.90
69901;DHT22;57183;50.930;5.406;2022-12-29T14:58:00;9.40;99.90
69901;DHT22;57183;50.930;5.406;2022-12-29T15:00:31;9.40;99.90
69901;DHT22;57183;50.930;5.406;2022-12-29T15:06:08;9.30;99.90
69901;DHT22;57183;50.930;5.406;2022-12-29T15:09:01;9.40;99.90
69901;DHT22;57183;50.930;5.406;2022-12-29T15:11:47;9.50;99.90
69901;DHT22;57183;50.930;5.406;2022-12-29T15:14:39;9.50;99.90
69901;DHT22;57183;50.930;5.406;2022-12-29T15:17:24;9.60;99.90
69901;DHT22;57183;50.930;5.406;2022-12-29T15:19:51;9.70;99.90
69901;DHT22;57183;50.930;5.406;2022-12-29T15:22:17;9.80;99.90
69901;DHT22;57183;50.930;5.406;2022-12-29T15:24:43;9.90;99.90
69901;DHT22;57183;50.930;5.406;2022-12-29T15:27:21;9.90;99.90
69901;DHT22;57183;50.930;5.406;2022-12-29T15:29:47;9.90;99.90
69901;DHT22;57183;50.930;5.406;2022-12-29T15:32:20;9.90;99.90
69901;DHT22;57183;50.930;5.406;2022-12-29T15:34:50;9.90;99.90
69901;DHT22;57183;50.930;5.406;2022-12-29T15:37:24;9.90;99.90
69901;DHT22;57183;50.930;5.406;2022-12-29T15:39:51;9.80;99.90
69901;DHT22;57183;50.930;5.406;2022-12-29T15:45:11;9.50;99.90
69901;DHT22;57183;50.930;5.406;2022-12-29T15:47:38;9.30;99.90
69901;DHT22;57183;50.930;5.406;2022-12-29T15:52:40;9.20;99.90
69901;DHT22;57183;50.930;5.406;2022-12-29T15:55:10;9.20;99.90
69901;DHT22;57183;50.930;5.406;2022-12-29T15:57:43;9.20;99.90
69901;DHT22;57183;50.930;5.406;2022-12-29T16:00:26;9.30;99.90
69901;DHT22;57183;50.930;5.406;2022-12-29T16:02:54;9.20;99.90
69901;DHT22;57183;50.930;5.406;2022-12-29T16:05:21;9.20;99.90
69901;DHT22;57183;50.930;5.406;2022-12-29T16:07:58;9.30;99.90
69901;DHT22;57183;50.930;5.406;2022-12-29T16:10:33;9.30;99.90
69901;DHT22;57183;50.930;5.406;2022-12-29T16:13:03;9.40;99.90
69901;DHT22;57183;50.930;5.406;2022-12-29T16:15:30;9.50;99.90
69901;DHT22;57183;50.930;5.406;2022-12-29T16:17:56;9.50;99.90
69901;DHT22;57183;50.930;5.406;2022-12-29T16:20:34;9.50;99.90
69901;DHT22;57183;50.930;5.406;2022-12-29T16:23:02;9.50;99.90
69901;DHT22;57183;50.930;5.406;2022-12-29T16:25:32;9.50;99.90
69901;DHT22;57183;50.930;5.406;2022-12-29T16:28:01;9.50;99.90
69901;DHT22;57183;50.930;5.406;2022-12-29T16:30:33;9.30;99.90
69901;DHT22;57183;50.930;5.406;2022-12-29T16:33:02;9.20;99.90
69901;DHT22;57183;50.930;5.406;2022-12-29T16:38:20;9.00;99.90
69901;DHT22;57183;50.930;5.406;2022-12-29T16:43:27;9.00;99.90
69901;DHT22;57183;50.930;5.406;2022-12-29T16:46:11;9.00;99.90
69901;DHT22;57183;50.930;5.406;2022-12-29T16:48:46;9.10;99.90
69901;DHT22;57183;50.930;5.406;2022-12-29T16:51:16;9.00;99.90
69901;DHT22;57183;50.930;5.406;2022-12-29T16:53:50;8.90;99.90
69901;DHT22;57183;50.930;5.406;2022-12-29T16:56:19;8.80;99.90
69901;DHT22;57183;50.930;5.406;2022-12-29T16:58:50;8.80;99.90
69901;DHT22;57183;50.930;5.406;2022-12-29T17:01:17;8.80;99.90
69901;DHT22;57183;50.930;5.406;2022-12-29T17:04:05;8.70;99.90
69901;DHT22;57183;50.930;5.406;2022-12-29T17:06:31;8.70;99.90
69901;DHT22;57183;50.930;5.406;2022-12-29T17:08:57;8.70;99.90
69901;DHT22;57183;50.930;5.406;2022-12-29T17:11:32;8.70;99.90
69901;DHT22;57183;50.930;5.406;2022-12-29T17:17:00;8.70;99.90
69901;DHT22;57183;50.930;5.406;2022-12-29T17:19:32;8.70;99.90
69901;DHT22;57183;50.930;5.406;2022-12-29T17:21:58;8.80;99.90
69901;DHT22;57183;50.930;5.406;2022-12-29T17:24:24;8.80;99.90
69901;DHT22;57183;50.930;5.406;2022-12-29T17:26:53;8.80;99.90
69901;DHT22;57183;50.930;5.406;2022-12-29T17:29:40;8.80;99.90
69901;DHT22;57183;50.930;5.406;2022-12-29T17:32:11;8.90;99.90
69901;DHT22;57183;50.930;5.406;2022-12-29T17:34:41;8.90;99.90
69901;DHT22;57183;50.930;5.406;2022-12-29T17:37:34;8.90;99.90
69901;DHT22;57183;50.930;5.406;2022-12-29T17:40:01;8.90;99.90
69901;DHT22;57183;50.930;5.406;2022-12-29T17:42:26;8.90;99.90
69901;DHT22;57183;50.930;5.406;2022-12-29T17:44:52;8.90;99.90
69901;DHT22;57183;50.930;5.406;2022-12-29T17:47:18;9.00;99.90
69901;DHT22;57183;50.930;5.406;2022-12-29T17:49:44;8.90;99.90
69901;DHT22;57183;50.930;5.406;2022-12-29T17:52:16;8.90;99.90
69901;DHT22;57183;50.930;5.406;2022-12-29T17:54:46;8.90;99.90
69901;DHT22;57183;50.930;5.406;2022-12-29T17:57:14;8.80;99.90
69901;DHT22;57183;50.930;5.406;2022-12-29T17:59:40;8.70;99.90
69901;DHT22;57183;50.930;5.406;2022-12-29T18:02:28;8.70;99.90
69901;DHT22;57183;50.930;5.406;2022-12-29T18:04:56;8.70;99.90
69901;DHT22;57183;50.930;5.406;2022-12-29T18:07:22;8.60;99.90
69901;DHT22;57183;50.930;5.406;2022-12-29T18:09:48;8.70;99.90
69901;DHT22;57183;50.930;5.406;2022-12-29T18:14:52;8.60;99.90
69901;DHT22;57183;50.930;5.406;2022-12-29T18:17:18;8.50;99.90
69901;DHT22;57183;50.930;5.406;2022-12-29T18:19:44;8.60;99.90
69901;DHT22;57183;50.930;5.406;2022-12-29T18:22:09;8.60;99.90
69901;DHT22;57183;50.930;5.406;2022-12-29T18:24:35;8.60;99.90
69901;DHT22;57183;50.930;5.406;2022-12-29T18:27:14;8.50;99.90
69901;DHT22;57183;50.930;5.406;2022-12-29T18:29:41;8.50;99.90